createdAt,value
2019-03-12T00:01:09.174Z,42.76
2019-03-12T00:02:32.060Z,42.73
2019-03-12T00:03:36.282Z,42.69
2019-03-12T00:04:40.857Z,42.62
2019-03-12T00:05:44.994Z,42.75
2019-03-12T00:07:59.341Z,42.74
2019-03-12T00:09:22.278Z,42.74
2019-03-12T00:10:45.231Z,42.83
2019-03-12T00:12:08.286Z,42.81
2019-03-12T00:13:12.514Z,42.78
2019-03-12T00:14:16.820Z,42.77
2019-03-12T00:16:44.293Z,42.60
2019-03-12T00:17:48.459Z,42.50
2019-03-12T00:19:11.411Z,42.63
2019-03-12T00:20:15.299Z,42.86
2019-03-12T00:21:19.377Z,42.93
2019-03-12T00:22:42.402Z,42.98
2019-03-12T00:23:46.611Z,42.98
2019-03-12T00:24:50.446Z,42.97
2019-03-12T00:25:54.965Z,42.97
2019-03-12T00:26:59.763Z,42.95
2019-03-12T00:28:03.903Z,42.91
2019-03-12T00:29:26.919Z,42.85
2019-03-12T00:32:32.386Z,42.83
2019-03-12T00:33:36.796Z,42.88
2019-03-12T00:34:41.002Z,42.90
2019-03-12T00:35:45.170Z,42.99
2019-03-12T00:36:49.419Z,42.98
2019-03-12T00:37:54.160Z,42.94
2019-03-12T00:40:21.592Z,42.84
2019-03-12T00:41:26.090Z,42.82
2019-03-12T00:42:29.921Z,42.74
2019-03-12T00:43:34.061Z,42.85
2019-03-12T00:44:38.717Z,42.83
2019-03-12T00:45:43.033Z,42.99
2019-03-12T00:46:47.168Z,43.05
2019-03-12T00:47:51.252Z,43.10
2019-03-12T00:48:55.331Z,43.18
2019-03-12T00:49:59.708Z,43.21
2019-03-12T00:51:04.098Z,43.18
2019-03-12T00:52:07.917Z,43.13
2019-03-12T00:53:11.827Z,43.13
2019-03-12T00:54:15.968Z,43.12
2019-03-12T00:55:19.876Z,42.96
2019-03-12T00:56:24.178Z,43.01
2019-03-12T00:57:28.166Z,42.98
2019-03-12T00:58:32.139Z,42.96
2019-03-12T00:59:36.277Z,42.96
2019-03-12T01:00:40.618Z,42.99
2019-03-12T01:01:45.094Z,43.09
2019-03-12T01:02:49.069Z,43.10
2019-03-12T01:03:53.119Z,43.10
2019-03-12T01:04:56.940Z,42.99
2019-03-12T01:06:00.828Z,42.95
2019-03-12T01:07:05.046Z,42.94
2019-03-12T01:08:08.946Z,42.99
2019-03-12T01:09:13.561Z,43.02
2019-03-12T01:10:17.525Z,43.04
2019-03-12T01:11:21.903Z,43.00
2019-03-12T01:12:26.041Z,43.05
2019-03-12T01:13:30.535Z,42.96
2019-03-12T01:14:35.077Z,42.97
2019-03-12T01:15:38.967Z,43.05
2019-03-12T01:17:01.909Z,43.15
2019-03-12T01:18:05.813Z,43.16
2019-03-12T01:19:09.706Z,43.19
2019-03-12T01:20:13.802Z,43.22
2019-03-12T01:22:41.354Z,43.27
2019-03-12T01:25:13.642Z,43.24
2019-03-12T01:26:17.852Z,43.34
2019-03-12T01:27:22.042Z,43.25
2019-03-12T01:28:26.212Z,43.23
2019-03-12T01:29:49.229Z,43.27
2019-03-12T01:30:53.305Z,43.48
2019-03-12T01:33:39.594Z,43.89
2019-03-12T01:34:43.412Z,44.03
2019-03-12T01:35:47.646Z,44.11
2019-03-12T01:36:51.600Z,44.11
2019-03-12T01:37:55.417Z,44.23
2019-03-12T01:38:59.646Z,44.39
2019-03-12T01:42:06.188Z,44.67
2019-03-12T01:43:10.089Z,44.73
2019-03-12T01:44:33.030Z,44.82
2019-03-12T01:45:56.056Z,44.97
2019-03-12T01:47:00.199Z,45.09
2019-03-12T01:48:04.276Z,45.24
2019-03-12T01:49:08.239Z,45.37
2019-03-12T01:50:51.714Z,45.45
2019-03-12T01:51:55.899Z,45.53
2019-03-12T01:52:59.721Z,45.50
2019-03-12T01:55:32.949Z,45.73
2019-03-12T01:56:37.550Z,45.73
2019-03-12T01:57:41.514Z,45.82
2019-03-12T01:59:55.304Z,45.96
2019-03-12T02:01:18.327Z,46.01
2019-03-12T02:02:22.795Z,46.10
2019-03-12T02:03:27.221Z,46.14
2019-03-12T02:04:50.325Z,46.24
2019-03-12T02:05:54.422Z,46.29
2019-03-12T02:07:17.384Z,46.28
2019-03-12T02:08:21.922Z,46.31
2019-03-12T02:09:25.992Z,46.33
2019-03-12T02:11:53.349Z,46.39
2019-03-12T02:12:57.583Z,46.39
2019-03-12T02:15:43.885Z,46.44
2019-03-12T02:16:47.785Z,46.39
2019-03-12T02:17:52.294Z,46.31
2019-03-12T02:18:56.470Z,46.33
2019-03-12T02:20:00.441Z,46.39
2019-03-12T02:21:23.846Z,46.43
2019-03-12T02:22:27.920Z,46.50
2019-03-12T02:23:32.127Z,46.50
2019-03-12T02:24:36.033Z,46.54
2019-03-12T02:25:59.236Z,46.55
2019-03-12T02:27:22.570Z,46.50
2019-03-12T02:28:26.471Z,46.39
2019-03-12T02:29:30.393Z,46.41
2019-03-12T02:30:34.368Z,46.38
2019-03-12T02:33:01.272Z,46.45
2019-03-12T02:35:47.262Z,46.35
2019-03-12T02:37:10.284Z,46.35
2019-03-12T02:38:14.775Z,46.40
2019-03-12T02:39:38.065Z,46.40
2019-03-12T02:41:01.048Z,46.48
2019-03-12T02:42:44.758Z,46.51
2019-03-12T02:43:48.873Z,46.62
2019-03-12T02:44:53.036Z,46.61
2019-03-12T02:46:16.222Z,46.61
2019-03-12T02:47:39.506Z,46.69
2019-03-12T02:49:02.871Z,46.70
2019-03-12T02:50:08.015Z,46.75
2019-03-12T02:51:30.952Z,46.77
2019-03-12T02:54:17.238Z,46.76
2019-03-12T02:55:40.794Z,46.70
2019-03-12T02:56:44.899Z,46.73
2019-03-12T02:59:12.263Z,46.66
2019-03-12T03:00:20.362Z,46.62
2019-03-12T03:01:24.868Z,46.73
2019-03-12T03:02:29.579Z,46.75
2019-03-12T03:03:33.408Z,46.78
2019-03-12T03:04:37.727Z,46.86
2019-03-12T03:06:00.630Z,46.83
2019-03-12T03:07:42.974Z,46.77
2019-03-12T03:09:06.121Z,46.66
2019-03-12T03:10:29.719Z,46.59
2019-03-12T03:11:33.621Z,46.63
2019-03-12T03:14:39.487Z,46.55
2019-03-12T03:15:44.981Z,46.46
2019-03-12T03:16:49.139Z,46.53
2019-03-12T03:17:53.382Z,46.64
2019-03-12T03:18:57.604Z,46.66
2019-03-12T03:20:01.512Z,46.71
2019-03-12T03:21:05.484Z,46.78
2019-03-12T03:22:09.698Z,46.86
2019-03-12T03:23:13.592Z,46.90
2019-03-12T03:24:17.860Z,46.91
2019-03-12T03:25:40.956Z,46.97
2019-03-12T03:26:45.821Z,47.05
2019-03-12T03:27:50.029Z,47.09
2019-03-12T03:28:53.998Z,47.23
2019-03-12T03:29:57.894Z,47.32
2019-03-12T03:31:02.077Z,47.46
2019-03-12T03:32:06.382Z,47.62
2019-03-12T03:33:10.317Z,47.73
2019-03-12T03:34:14.213Z,47.78
2019-03-12T03:35:18.194Z,47.79
2019-03-12T03:36:22.516Z,47.82
2019-03-12T03:37:26.729Z,47.85
2019-03-12T03:38:30.886Z,47.90
2019-03-12T03:39:34.707Z,47.92
2019-03-12T03:40:38.845Z,47.96
2019-03-12T03:41:42.743Z,48.05
2019-03-12T03:42:47.056Z,48.14
2019-03-12T03:43:51.473Z,48.22
2019-03-12T03:44:55.998Z,48.34
2019-03-12T03:45:59.904Z,48.49
2019-03-12T03:47:22.853Z,48.56
2019-03-12T03:48:26.670Z,48.61
2019-03-12T03:49:30.808Z,48.62
2019-03-12T03:50:54.159Z,48.70
2019-03-12T03:51:58.664Z,48.74
2019-03-12T03:53:02.882Z,48.74
2019-03-12T03:54:25.900Z,48.96
2019-03-12T03:55:30.008Z,49.12
2019-03-12T03:56:53.309Z,49.27
2019-03-12T03:57:57.135Z,49.44
2019-03-12T03:59:20.157Z,49.44
2019-03-12T04:00:24.142Z,49.51
2019-03-12T04:01:28.053Z,49.43
2019-03-12T04:02:31.955Z,49.49
2019-03-12T04:03:36.478Z,49.52
2019-03-12T04:04:41.135Z,49.58
2019-03-12T04:05:45.351Z,49.64
2019-03-12T04:07:08.238Z,49.73
2019-03-12T04:08:12.471Z,49.82
2019-03-12T04:09:16.362Z,49.80
2019-03-12T04:10:20.769Z,49.85
2019-03-12T04:13:25.867Z,49.88
2019-03-12T04:14:49.153Z,49.78
2019-03-12T04:15:53.251Z,49.79
2019-03-12T04:17:16.609Z,49.83
2019-03-12T04:18:20.632Z,50.04
2019-03-12T04:19:24.491Z,50.04
2019-03-12T04:20:48.042Z,50.11
2019-03-12T04:22:11.325Z,50.38
2019-03-12T04:23:34.431Z,50.44
2019-03-12T04:24:38.845Z,50.54
2019-03-12T04:27:25.578Z,50.78
2019-03-12T04:28:48.862Z,51.01
2019-03-12T04:29:52.762Z,51.04
2019-03-12T04:31:15.703Z,51.08
2019-03-12T04:32:19.520Z,51.20
2019-03-12T04:34:01.927Z,51.23
2019-03-12T04:35:07.464Z,51.36
2019-03-12T04:36:11.626Z,51.36
2019-03-12T04:37:35.101Z,51.46
2019-03-12T04:38:39.278Z,51.56
2019-03-12T04:40:02.949Z,51.58
2019-03-12T04:41:25.971Z,51.64
2019-03-12T04:42:30.211Z,51.61
2019-03-12T04:43:34.189Z,51.62
2019-03-12T04:44:57.209Z,51.72
2019-03-12T04:46:20.480Z,51.74
2019-03-12T04:47:25.159Z,51.77
2019-03-12T04:48:28.993Z,51.71
2019-03-12T04:49:33.260Z,51.61
2019-03-12T04:50:37.088Z,51.52
2019-03-12T04:51:41.121Z,51.47
2019-03-12T04:52:45.435Z,51.45
2019-03-12T04:53:49.517Z,51.46
2019-03-12T04:54:53.659Z,51.49
2019-03-12T04:55:57.554Z,51.49
2019-03-12T04:57:01.373Z,51.46
2019-03-12T04:58:05.586Z,51.44
2019-03-12T04:59:09.641Z,51.46
2019-03-12T05:00:15.495Z,51.41
2019-03-12T05:01:19.974Z,51.39
2019-03-12T05:02:23.794Z,51.39
2019-03-12T05:03:27.630Z,51.42
2019-03-12T05:04:31.978Z,51.43
2019-03-12T05:05:36.197Z,51.42
2019-03-12T05:06:40.413Z,51.37
2019-03-12T05:07:44.483Z,51.34
2019-03-12T05:08:48.909Z,51.36
2019-03-12T05:09:52.778Z,51.43
2019-03-12T05:10:56.599Z,51.46
2019-03-12T05:12:01.032Z,51.43
2019-03-12T05:13:04.911Z,51.42
2019-03-12T05:14:28.966Z,51.45
2019-03-12T05:15:33.363Z,51.49
2019-03-12T05:16:37.183Z,51.42
2019-03-12T05:17:41.546Z,51.44
2019-03-12T05:18:45.366Z,51.48
2019-03-12T05:19:49.534Z,51.52
2019-03-12T05:20:53.678Z,51.55
2019-03-12T05:21:57.569Z,51.63
2019-03-12T05:23:01.714Z,51.68
2019-03-12T05:24:05.609Z,51.71
2019-03-12T05:25:10.540Z,51.71
2019-03-12T05:26:15.111Z,51.74
2019-03-12T05:27:19.084Z,51.82
2019-03-12T05:28:23.400Z,51.84
2019-03-12T05:30:37.447Z,51.84
2019-03-12T05:33:04.284Z,51.86
2019-03-12T05:34:08.105Z,51.86
2019-03-12T05:35:31.406Z,51.98
2019-03-12T05:36:35.477Z,52.03
2019-03-12T05:37:39.534Z,52.00
2019-03-12T05:40:06.877Z,51.98
2019-03-12T05:41:30.224Z,51.87
2019-03-12T05:42:34.768Z,51.87
2019-03-12T05:45:01.976Z,51.92
2019-03-12T05:46:06.089Z,51.92
2019-03-12T05:47:10.359Z,51.97
2019-03-12T05:48:14.578Z,52.00
2019-03-12T05:49:37.600Z,52.04
2019-03-12T05:50:41.757Z,52.04
2019-03-12T05:55:39.564Z,52.06
2019-03-12T05:56:43.712Z,51.96
2019-03-12T05:57:47.867Z,52.04
2019-03-12T05:58:51.758Z,52.14
2019-03-12T05:59:55.656Z,52.24
2019-03-12T06:00:59.838Z,52.35
2019-03-12T06:02:04.081Z,52.40
2019-03-12T06:03:08.705Z,52.53
2019-03-12T06:04:12.950Z,52.54
2019-03-12T06:05:16.932Z,52.53
2019-03-12T06:06:20.792Z,52.50
2019-03-12T06:07:24.613Z,52.47
2019-03-12T06:08:28.725Z,52.47
2019-03-12T06:09:32.795Z,52.42
2019-03-12T06:10:36.630Z,52.37
2019-03-12T06:11:40.702Z,52.34
2019-03-12T06:12:44.875Z,52.32
2019-03-12T06:13:49.193Z,52.29
2019-03-12T06:14:53.281Z,52.26
2019-03-12T06:15:57.707Z,52.22
2019-03-12T06:17:01.844Z,52.20
2019-03-12T06:18:05.816Z,52.24
2019-03-12T06:19:10.027Z,52.16
2019-03-12T06:20:14.251Z,52.07
2019-03-12T06:21:18.683Z,52.04
2019-03-12T06:22:22.502Z,51.96
2019-03-12T06:23:26.657Z,51.90
2019-03-12T06:24:30.909Z,51.84
2019-03-12T06:25:35.180Z,51.76
2019-03-12T06:26:39.465Z,51.65
2019-03-12T06:27:43.439Z,51.50
2019-03-12T06:28:47.335Z,51.35
2019-03-12T06:30:11.221Z,51.29
2019-03-12T06:31:34.396Z,51.22
2019-03-12T06:32:57.607Z,51.07
2019-03-12T06:34:21.200Z,50.96
2019-03-12T06:35:44.090Z,50.86
2019-03-12T06:37:07.523Z,51.21
2019-03-12T06:38:30.616Z,51.06
2019-03-12T06:39:54.246Z,51.14
2019-03-12T06:41:17.149Z,51.82
2019-03-12T06:42:59.659Z,52.34
2019-03-12T06:44:29.305Z,52.24
2019-03-12T06:45:42.462Z,51.68
2019-03-12T06:47:05.877Z,50.88
2019-03-12T06:48:48.389Z,51.39
2019-03-12T06:50:33.203Z,51.42
2019-03-12T06:51:56.670Z,51.10
2019-03-12T06:53:09.197Z,50.71
2019-03-12T06:54:32.371Z,50.20
2019-03-12T06:55:55.174Z,50.08
2019-03-12T06:57:37.439Z,49.83
2019-03-12T06:59:00.586Z,50.08
2019-03-12T07:00:42.730Z,50.14
2019-03-12T07:02:24.768Z,50.30
2019-03-12T07:03:48.127Z,49.99
2019-03-12T07:05:10.122Z,49.49
2019-03-12T07:06:52.768Z,49.03
2019-03-12T07:08:34.697Z,48.92
2019-03-12T07:09:57.578Z,48.79
2019-03-12T07:11:20.460Z,48.61
2019-03-12T07:12:33.214Z,48.39
2019-03-12T07:13:56.019Z,47.93
2019-03-12T07:15:19.147Z,47.72
2019-03-12T07:16:42.296Z,47.94
2019-03-12T07:18:24.302Z,48.15
2019-03-12T07:20:06.648Z,47.99
2019-03-12T07:21:48.652Z,48.07
2019-03-12T07:23:12.205Z,47.91
2019-03-12T07:24:35.092Z,47.92
2019-03-12T07:25:45.164Z,47.97
2019-03-12T07:27:08.846Z,47.76
2019-03-12T07:28:51.110Z,47.61
2019-03-12T07:32:05.982Z,47.28
2019-03-12T07:33:29.098Z,47.30
2019-03-12T07:34:51.917Z,47.10
2019-03-12T07:36:14.733Z,46.94
2019-03-12T07:37:37.958Z,47.02
2019-03-12T07:39:19.876Z,47.05
2019-03-12T07:41:02.107Z,47.02
2019-03-12T07:42:25.043Z,46.98
2019-03-12T07:43:48.553Z,46.95
2019-03-12T07:45:11.444Z,47.05
2019-03-12T07:46:42.185Z,46.97
2019-03-12T07:47:56.546Z,46.92
2019-03-12T07:49:22.183Z,46.86
2019-03-12T07:50:36.260Z,46.97
2019-03-12T07:51:59.901Z,46.85
2019-03-12T07:53:13.434Z,46.80
2019-03-12T07:54:49.208Z,46.95
2019-03-12T07:56:21.034Z,47.08
2019-03-12T07:57:39.583Z,47.04
2019-03-12T07:59:02.554Z,46.97
2019-03-12T08:00:46.109Z,47.01
2019-03-12T08:02:08.954Z,46.88
2019-03-12T08:03:32.031Z,46.98
2019-03-12T08:05:02.858Z,46.96
2019-03-12T08:06:44.785Z,46.86
2019-03-12T08:08:07.597Z,46.87
2019-03-12T08:09:37.105Z,46.91
2019-03-12T08:10:59.915Z,46.83
2019-03-12T08:12:23.044Z,46.73
2019-03-12T08:13:45.936Z,46.71
2019-03-12T08:15:22.262Z,46.76
2019-03-12T08:16:34.150Z,46.79
2019-03-12T08:17:56.965Z,46.74
2019-03-12T08:19:18.438Z,46.72
2019-03-12T08:20:41.838Z,46.65
2019-03-12T08:22:04.731Z,46.55
2019-03-12T08:23:32.587Z,46.57
2019-03-12T08:24:51.679Z,46.65
2019-03-12T08:26:02.501Z,46.65
2019-03-12T08:27:26.232Z,46.92
2019-03-12T08:29:08.922Z,46.93
2019-03-12T08:30:31.813Z,46.82
2019-03-12T08:31:54.951Z,46.47
2019-03-12T08:33:49.595Z,46.18
2019-03-12T08:35:21.347Z,46.06
2019-03-12T08:37:03.268Z,45.92
2019-03-12T08:38:31.875Z,45.71
2019-03-12T08:39:54.779Z,45.58
2019-03-12T08:41:36.778Z,45.51
2019-03-12T08:42:54.413Z,45.29
2019-03-12T08:44:29.826Z,45.22
2019-03-12T08:46:00.240Z,45.28
2019-03-12T08:47:23.363Z,45.19
2019-03-12T08:48:46.248Z,45.07
2019-03-12T08:50:09.769Z,45.00
2019-03-12T08:51:32.732Z,45.00
2019-03-12T08:52:55.541Z,44.84
2019-03-12T08:54:21.373Z,44.61
2019-03-12T08:55:43.839Z,44.38
2019-03-12T08:58:57.078Z,43.71
2019-03-12T09:00:11.937Z,43.76
2019-03-12T09:01:24.254Z,43.82
2019-03-12T09:02:47.132Z,43.80
2019-03-12T09:04:29.380Z,43.70
2019-03-12T09:06:11.410Z,43.20
2019-03-12T09:07:34.632Z,42.94
2019-03-12T09:08:57.518Z,42.56
2019-03-12T09:10:39.475Z,42.40
2019-03-12T09:12:11.644Z,42.26
2019-03-12T09:13:34.472Z,42.05
2019-03-12T09:15:16.744Z,41.67
2019-03-12T09:16:58.755Z,41.58
2019-03-12T09:18:40.757Z,41.36
2019-03-12T09:20:03.859Z,41.21
2019-03-12T09:21:26.766Z,41.11
2019-03-12T09:22:49.870Z,40.95
2019-03-12T09:24:04.249Z,40.92
2019-03-12T09:25:27.492Z,40.83
2019-03-12T09:26:50.319Z,40.63
2019-03-12T09:28:34.667Z,40.39
2019-03-12T09:29:44.981Z,40.19
2019-03-12T09:31:08.285Z,40.03
2019-03-12T09:32:31.480Z,39.88
2019-03-12T09:34:13.489Z,39.86
2019-03-12T09:35:55.736Z,39.75
2019-03-12T09:37:18.573Z,39.61
2019-03-12T09:38:28.000Z,39.55
2019-03-12T09:39:38.176Z,39.27
2019-03-12T09:40:55.405Z,39.25
2019-03-12T09:42:10.859Z,39.23
2019-03-12T09:43:42.968Z,39.25
2019-03-12T09:45:04.441Z,39.06
2019-03-12T09:46:25.450Z,38.96
2019-03-12T09:47:45.114Z,38.81
2019-03-12T09:49:10.034Z,38.68
2019-03-12T09:50:38.849Z,38.30
2019-03-12T09:52:04.986Z,38.17
2019-03-12T09:53:39.836Z,38.18
2019-03-12T09:55:04.795Z,38.07
2019-03-12T09:56:26.334Z,37.85
2019-03-12T09:58:03.942Z,37.96
2019-03-12T09:59:27.400Z,37.90
2019-03-12T10:00:50.280Z,37.91
2019-03-12T10:02:13.473Z,37.64
2019-03-12T10:03:36.725Z,37.57
2019-03-12T10:04:59.609Z,37.06
2019-03-12T10:06:22.430Z,37.20
2019-03-12T10:07:45.395Z,37.01
2019-03-12T10:09:08.282Z,36.91
2019-03-12T10:10:31.245Z,36.71
2019-03-12T10:13:32.715Z,35.71
2019-03-12T10:14:46.598Z,35.26
2019-03-12T10:16:09.553Z,35.31
2019-03-12T10:17:32.364Z,35.05
2019-03-12T10:18:55.686Z,34.78
2019-03-12T10:20:18.614Z,34.68
2019-03-12T10:21:41.501Z,34.45
2019-03-12T10:23:04.344Z,34.47
2019-03-12T10:24:14.409Z,33.81
2019-03-12T10:25:37.364Z,33.70
2019-03-12T10:27:00.175Z,33.86
2019-03-12T10:28:23.345Z,34.07
2019-03-12T10:29:46.554Z,33.86
2019-03-12T10:30:57.052Z,33.28
2019-03-12T10:32:30.221Z,33.05
2019-03-12T10:33:50.865Z,33.13
2019-03-12T10:35:28.858Z,33.41
2019-03-12T10:36:52.103Z,33.45
2019-03-12T10:38:28.279Z,33.67
2019-03-12T10:40:11.310Z,33.63
2019-03-12T10:41:34.270Z,33.48
2019-03-12T10:42:45.209Z,33.45
2019-03-12T10:44:08.284Z,33.48
2019-03-12T10:47:00.882Z,33.21
2019-03-12T10:48:04.830Z,33.36
2019-03-12T10:49:09.054Z,33.26
2019-03-12T10:52:15.774Z,32.63
2019-03-12T10:53:38.709Z,32.70
2019-03-12T10:55:12.082Z,32.82
2019-03-12T10:56:27.081Z,32.63
2019-03-12T10:57:30.981Z,32.39
2019-03-12T10:58:53.895Z,32.40
2019-03-12T10:59:57.989Z,32.24
2019-03-12T11:01:01.905Z,31.95
2019-03-12T11:02:06.231Z,31.97
2019-03-12T11:03:10.451Z,32.08
2019-03-12T11:04:33.728Z,32.32
2019-03-12T11:05:46.032Z,32.18
2019-03-12T11:06:43.701Z,32.18
2019-03-12T11:07:47.681Z,32.28
2019-03-12T11:09:10.947Z,32.55
2019-03-12T11:10:15.088Z,32.69
2019-03-12T11:11:19.029Z,32.58
2019-03-12T11:12:22.855Z,32.43
2019-03-12T11:13:27.033Z,32.15
2019-03-12T11:14:31.509Z,31.99
2019-03-12T11:15:35.980Z,31.98
2019-03-12T11:16:40.404Z,31.88
2019-03-12T11:17:49.588Z,31.85
2019-03-12T11:18:50.064Z,31.86
2019-03-12T11:19:54.474Z,31.92
2019-03-12T11:20:59.001Z,31.84
2019-03-12T11:22:03.203Z,31.58
2019-03-12T11:23:07.210Z,31.68
2019-03-12T11:24:11.631Z,31.65
2019-03-12T11:25:26.444Z,31.51
2019-03-12T11:26:21.717Z,31.17
2019-03-12T11:27:25.610Z,31.04
2019-03-12T11:28:29.503Z,31.03
2019-03-12T11:29:33.732Z,31.02
2019-03-12T11:30:37.772Z,30.82
2019-03-12T11:31:41.903Z,30.75
2019-03-12T11:32:45.861Z,30.84
2019-03-12T11:33:49.753Z,31.04
2019-03-12T11:34:54.074Z,31.08
2019-03-12T11:35:58.272Z,30.93
2019-03-12T11:37:02.209Z,30.85
2019-03-12T11:38:06.474Z,30.71
2019-03-12T11:39:10.734Z,30.60
2019-03-12T11:40:16.949Z,30.36
2019-03-12T11:41:21.109Z,30.35
2019-03-12T11:42:25.057Z,30.41
2019-03-12T11:43:29.191Z,30.35
2019-03-12T11:44:33.191Z,30.34
2019-03-12T11:45:38.412Z,30.44
2019-03-12T11:47:02.111Z,30.66
2019-03-12T11:48:06.116Z,30.71
2019-03-12T11:49:10.006Z,30.54
2019-03-12T11:50:16.313Z,30.37
2019-03-12T11:51:20.281Z,30.24
2019-03-12T11:52:24.387Z,30.03
2019-03-12T11:53:28.297Z,29.85
2019-03-12T11:54:32.781Z,29.81
2019-03-12T11:55:36.769Z,29.91
2019-03-12T11:57:00.025Z,30.03
2019-03-12T11:58:04.300Z,30.04
2019-03-12T11:59:08.273Z,30.07
2019-03-12T12:00:52.591Z,30.02
2019-03-12T12:03:19.595Z,30.09
2019-03-12T12:04:23.581Z,29.97
2019-03-12T12:05:27.779Z,29.73
2019-03-12T12:06:32.102Z,29.29
2019-03-12T12:07:55.213Z,29.19
2019-03-12T12:08:59.139Z,29.25
2019-03-12T12:10:04.881Z,29.36
2019-03-12T12:11:27.918Z,29.45
2019-03-12T12:12:32.338Z,29.68
2019-03-12T12:13:36.667Z,29.77
2019-03-12T12:14:41.060Z,29.75
2019-03-12T12:15:45.043Z,29.57
2019-03-12T12:17:08.001Z,29.39
2019-03-12T12:20:13.300Z,29.24
2019-03-12T12:21:36.434Z,29.21
2019-03-12T12:22:40.424Z,28.62
2019-03-12T12:23:44.605Z,28.51
2019-03-12T12:25:07.957Z,28.26
2019-03-12T12:26:31.011Z,28.02
2019-03-12T12:27:35.082Z,27.73
2019-03-12T12:28:39.016Z,27.81
2019-03-12T12:30:02.189Z,27.90
2019-03-12T12:31:25.237Z,28.00
2019-03-12T12:32:29.960Z,28.28
2019-03-12T12:33:33.863Z,28.44
2019-03-12T12:34:38.014Z,28.62
2019-03-12T12:35:41.917Z,28.67
2019-03-12T12:36:46.162Z,28.80
2019-03-12T12:37:50.180Z,28.83
2019-03-12T12:38:54.104Z,28.69
2019-03-12T12:39:58.497Z,28.59
2019-03-12T12:41:02.327Z,28.50
2019-03-12T12:42:06.236Z,28.40
2019-03-12T12:43:10.212Z,28.29
2019-03-12T12:44:14.603Z,28.11
2019-03-12T12:45:19.265Z,27.97
2019-03-12T12:46:23.322Z,27.82
2019-03-12T12:47:27.729Z,28.03
2019-03-12T12:48:32.059Z,28.35
2019-03-12T12:49:36.277Z,28.10
2019-03-12T12:50:40.262Z,27.61
2019-03-12T12:51:44.152Z,27.18
2019-03-12T12:52:48.487Z,26.76
2019-03-12T12:53:52.712Z,26.57
2019-03-12T12:54:56.791Z,26.28
2019-03-12T12:56:01.174Z,25.97
2019-03-12T12:57:06.077Z,25.84
2019-03-12T12:58:10.047Z,26.01
2019-03-12T12:59:14.260Z,26.02
2019-03-12T13:02:20.742Z,25.89
2019-03-12T13:03:44.180Z,25.96
2019-03-12T13:05:27.898Z,25.73
2019-03-12T13:07:11.498Z,25.66
2019-03-12T13:08:55.256Z,25.69
2019-03-12T13:10:18.525Z,25.78
2019-03-12T13:11:22.688Z,25.85
2019-03-12T13:12:46.539Z,26.09
2019-03-12T13:14:22.315Z,25.97
2019-03-12T13:15:55.713Z,26.15
2019-03-12T13:16:59.873Z,26.10
2019-03-12T13:18:04.046Z,26.14
2019-03-12T13:19:08.365Z,26.14
2019-03-12T13:20:12.547Z,26.19
2019-03-12T13:21:17.037Z,26.43
2019-03-12T13:22:21.173Z,26.49
2019-03-12T13:23:26.120Z,26.31
2019-03-12T13:24:30.215Z,26.28
2019-03-12T13:25:34.186Z,26.30
2019-03-12T13:26:38.101Z,26.27
2019-03-12T13:27:42.877Z,26.26
2019-03-12T13:29:07.398Z,26.27
2019-03-12T13:30:52.201Z,26.01
2019-03-12T13:31:56.743Z,26.09
2019-03-12T13:33:01.187Z,25.96
2019-03-12T13:34:07.426Z,25.97
2019-03-12T13:35:30.705Z,26.00
2019-03-12T13:36:35.179Z,26.07
2019-03-12T13:37:39.815Z,26.30
2019-03-12T13:38:46.107Z,26.47
2019-03-12T13:40:09.114Z,26.59
2019-03-12T13:41:32.077Z,26.76
2019-03-12T13:42:55.108Z,26.92
2019-03-12T13:44:18.465Z,26.97
2019-03-12T13:45:22.787Z,26.97
2019-03-12T13:46:45.883Z,27.12
2019-03-12T13:47:49.839Z,26.72
2019-03-12T13:49:13.191Z,26.82
2019-03-12T13:50:17.379Z,26.98
2019-03-12T13:51:22.035Z,27.11
2019-03-12T13:52:26.430Z,27.25
2019-03-12T13:53:30.933Z,27.23
2019-03-12T13:54:35.470Z,27.22
2019-03-12T13:55:58.900Z,27.24
2019-03-12T13:57:22.251Z,27.29
2019-03-12T13:58:45.299Z,27.21
2019-03-12T14:00:08.353Z,27.21
2019-03-12T14:01:31.694Z,27.22
2019-03-12T14:04:37.077Z,27.47
2019-03-12T14:06:00.242Z,27.41
2019-03-12T14:07:04.170Z,27.15
2019-03-12T14:08:27.541Z,27.02
2019-03-12T14:11:14.107Z,26.98
2019-03-12T14:12:18.358Z,27.23
2019-03-12T14:14:53.282Z,27.37
2019-03-12T14:15:57.431Z,27.33
2019-03-12T14:17:01.584Z,27.37
2019-03-12T14:18:06.097Z,27.45
2019-03-12T14:19:10.084Z,27.45
2019-03-12T14:20:45.579Z,27.37
2019-03-12T14:21:49.817Z,27.37
2019-03-12T14:22:54.041Z,27.51
2019-03-12T14:24:00.785Z,27.65
2019-03-12T14:25:06.536Z,27.67
2019-03-12T14:26:10.610Z,27.63
2019-03-12T14:27:14.584Z,27.51
2019-03-12T14:28:18.569Z,27.22
2019-03-12T14:29:22.555Z,27.24
2019-03-12T14:30:26.689Z,27.50
2019-03-12T14:31:30.906Z,27.65
2019-03-12T14:32:35.044Z,27.71
2019-03-12T14:33:39.266Z,27.82
2019-03-12T14:34:43.747Z,27.98
2019-03-12T14:35:51.943Z,28.03
2019-03-12T14:36:54.183Z,28.15
2019-03-12T14:37:58.327Z,28.17
2019-03-12T14:39:02.740Z,28.11
2019-03-12T14:40:07.035Z,28.10
2019-03-12T14:41:11.752Z,28.13
2019-03-12T14:42:16.082Z,28.14
2019-03-12T14:43:19.985Z,28.21
2019-03-12T14:44:23.833Z,28.24
2019-03-12T14:45:28.276Z,28.48
2019-03-12T14:46:32.244Z,28.59
2019-03-12T14:47:36.424Z,28.61
2019-03-12T14:49:20.621Z,28.67
2019-03-12T14:50:43.997Z,28.66
2019-03-12T14:52:09.950Z,28.67
2019-03-12T14:54:56.348Z,28.79
2019-03-12T14:56:19.658Z,28.76
2019-03-12T14:59:05.983Z,29.01
2019-03-12T15:00:52.851Z,29.04
2019-03-12T15:01:56.706Z,29.02
2019-03-12T15:03:01.219Z,29.11
2019-03-12T15:04:44.701Z,28.99
2019-03-12T15:06:07.730Z,28.98
2019-03-12T15:07:30.927Z,29.08
2019-03-12T15:08:54.126Z,29.03
2019-03-12T15:09:58.280Z,28.72
2019-03-12T15:11:02.186Z,28.38
2019-03-12T15:12:06.506Z,28.17
2019-03-12T15:13:10.679Z,27.79
2019-03-12T15:14:15.150Z,27.44
2019-03-12T15:15:19.313Z,27.48
2019-03-12T15:16:42.991Z,27.57
2019-03-12T15:17:47.234Z,27.23
2019-03-12T15:18:52.199Z,27.11
2019-03-12T15:19:57.867Z,27.16
2019-03-12T15:21:02.312Z,27.23
2019-03-12T15:22:06.221Z,27.22
2019-03-12T15:23:10.117Z,27.11
2019-03-12T15:24:17.098Z,26.93
2019-03-12T15:25:21.093Z,27.00
2019-03-12T15:26:25.232Z,27.21
2019-03-12T15:27:29.420Z,27.01
2019-03-12T15:28:33.360Z,26.80
2019-03-12T15:29:37.506Z,26.50
2019-03-12T15:30:41.738Z,26.42
2019-03-12T15:31:45.715Z,26.43
2019-03-12T15:32:49.537Z,25.97
2019-03-12T15:33:53.933Z,25.77
2019-03-12T15:34:58.091Z,25.81
2019-03-12T15:36:02.919Z,25.83
2019-03-12T15:37:06.824Z,25.51
2019-03-12T15:38:11.167Z,25.57
2019-03-12T15:39:15.222Z,25.55
2019-03-12T15:40:19.195Z,25.60
2019-03-12T15:41:23.322Z,25.56
2019-03-12T15:42:27.229Z,25.41
2019-03-12T15:43:31.374Z,25.44
2019-03-12T15:44:35.189Z,25.47
2019-03-12T15:45:39.163Z,25.64
2019-03-12T15:46:43.325Z,25.75
2019-03-12T15:47:47.808Z,25.87
2019-03-12T15:48:51.823Z,25.88
2019-03-12T15:49:55.715Z,25.83
2019-03-12T15:51:00.681Z,25.76
2019-03-12T15:52:04.785Z,25.77
2019-03-12T15:53:27.800Z,25.70
2019-03-12T15:54:32.307Z,25.67
2019-03-12T15:55:36.200Z,25.77
2019-03-12T15:56:40.097Z,25.75
2019-03-12T15:59:12.714Z,25.86
2019-03-12T16:00:56.175Z,25.89
2019-03-12T16:02:19.270Z,25.76
2019-03-12T16:03:23.482Z,25.99
2019-03-12T16:05:50.921Z,26.23
2019-03-12T16:07:13.979Z,26.38
2019-03-12T16:08:18.204Z,26.43
2019-03-12T16:09:22.342Z,26.50
2019-03-12T16:10:57.476Z,26.42
2019-03-12T16:12:10.632Z,26.49
2019-03-12T16:13:14.870Z,26.61
2019-03-12T16:14:19.137Z,26.57
2019-03-12T16:15:42.804Z,26.48
2019-03-12T16:16:47.214Z,26.13
2019-03-12T16:18:10.873Z,26.13
2019-03-12T16:19:26.430Z,26.21
2019-03-12T16:20:49.674Z,26.29
2019-03-12T16:22:13.087Z,26.34
2019-03-12T16:23:17.258Z,26.49
2019-03-12T16:24:21.786Z,26.58
2019-03-12T16:25:45.125Z,26.59
2019-03-12T16:27:08.055Z,26.50
2019-03-12T16:29:22.312Z,26.55
2019-03-12T16:30:45.251Z,26.57
2019-03-12T16:32:08.843Z,26.61
2019-03-12T16:34:41.728Z,26.70
2019-03-12T16:36:04.611Z,26.81
2019-03-12T16:37:27.999Z,26.89
2019-03-12T16:38:51.266Z,26.85
2019-03-12T16:40:14.322Z,26.88
2019-03-12T16:41:37.861Z,26.93
2019-03-12T16:42:42.088Z,26.98
2019-03-12T16:44:05.107Z,27.11
2019-03-12T16:45:09.434Z,27.17